Time;durP1;ratioP1;P1;durP2;ratioP2;P2;SDS_P1;SDS_P2;PMS_P1;PMS_P2;Temp;Humidity;BMP_temperature;BMP_pressure;BME280_temperature;BME280_humidity;BME280_pressure;Samples;Min_cycle;Max_cycle;Signal;HPM_P1;HPM_P2
2023/07/20 00:03:42;;;;;;;2.90;2.33;;;;;;;14.57;100.00;101334.09;10397756;28;20041;-65
2023/07/20 00:08:42;;;;;;;3.53;2.10;;;;;;;14.47;100.00;101336.78;10396392;28;20035;-66
2023/07/20 00:13:43;;;;;;;2.83;2.30;;;;;;;14.45;100.00;101336.22;10397035;28;20418;-65
2023/07/20 00:18:43;;;;;;;4.50;2.47;;;;;;;14.41;100.00;101333.19;10402643;28;20041;-66
2023/07/20 00:23:44;;;;;;;2.10;1.58;;;;;;;14.35;100.00;101327.91;10455123;28;20024;-66
2023/07/20 00:28:44;;;;;;;2.45;1.55;;;;;;;14.32;100.00;101323.69;10438768;28;20033;-66
2023/07/20 00:33:45;;;;;;;1.63;1.30;;;;;;;14.28;100.00;101326.19;10420598;28;20048;-65
2023/07/20 00:38:46;;;;;;;3.13;1.80;;;;;;;14.28;100.00;101323.44;10403935;28;20060;-66
2023/07/20 00:43:46;;;;;;;2.08;1.42;;;;;;;14.28;100.00;101317.03;10455338;28;20033;-66
2023/07/20 00:48:47;;;;;;;2.47;1.60;;;;;;;14.28;100.00;101328.97;10388944;28;20045;-66
2023/07/20 00:53:47;;;;;;;2.13;1.77;;;;;;;14.19;100.00;101321.41;10392677;28;20526;-66
2023/07/20 00:58:48;;;;;;;2.22;2.03;;;;;;;14.24;100.00;101327.84;10436728;28;20064;-66
2023/07/20 01:03:49;;;;;;;3.58;2.65;;;;;;;14.24;100.00;101329.75;10403498;28;20116;-66
2023/07/20 01:08:55;;;;;;;3.10;1.95;;;;;;;14.19;100.00;101330.56;10384394;28;20045;-66
2023/07/20 01:13:56;;;;;;;4.15;2.67;;;;;;;14.18;100.00;101328.91;10392959;28;20068;-66
2023/07/20 01:18:56;;;;;;;4.10;2.78;;;;;;;14.16;100.00;101336.63;10377466;28;20040;-66
2023/07/20 01:24:22;;;;;;;4.68;3.00;;;;;;;14.13;100.00;101326.09;10413840;28;20030;-65
2023/07/20 01:30:07;;;;;;;6.55;3.67;;;;;;;14.11;100.00;101334.66;10449471;28;20037;-66
2023/07/20 01:35:08;;;;;;;4.70;3.83;;;;;;;14.03;100.00;101324.06;10431585;28;20041;-66
2023/07/20 01:40:09;;;;;;;6.82;3.80;;;;;;;14.02;100.00;101332.66;10401968;28;20088;-65
2023/07/20 01:45:10;;;;;;;10.57;3.88;;;;;;;13.90;100.00;101330.09;10416968;28;20041;-66
2023/07/20 01:50:10;;;;;;;5.93;4.38;;;;;;;13.74;100.00;101312.53;10434826;28;20033;-65
2023/07/20 01:55:11;;;;;;;6.30;4.25;;;;;;;13.55;100.00;101314.88;10418340;28;20084;-66
2023/07/20 02:00:12;;;;;;;6.30;4.75;;;;;;;13.43;100.00;101320.56;10412473;28;20057;-66
2023/07/20 02:05:12;;;;;;;8.95;4.65;;;;;;;13.17;100.00;101307.56;10410992;28;20029;-66
2023/07/20 02:10:13;;;;;;;5.85;4.65;;;;;;;13.06;100.00;101321.28;10410336;28;20037;-66
2023/07/20 02:15:16;;;;;;;6.00;4.75;;;;;;;12.96;100.00;101323.94;10392888;28;20102;-66
2023/07/20 02:20:17;;;;;;;6.82;4.80;;;;;;;12.90;100.00;101324.97;10381296;28;20505;-66
2023/07/20 02:25:18;;;;;;;8.05;4.57;;;;;;;12.80;100.00;101330.38;10418230;28;20505;-66
2023/07/20 02:30:18;;;;;;;11.27;5.40;;;;;;;12.78;100.00;101321.53;10422663;28;20052;-65
2023/07/20 02:35:19;;;;;;;11.48;5.57;;;;;;;12.73;100.00;101330.56;10426708;28;20425;-66
2023/07/20 02:40:19;;;;;;;6.22;4.65;;;;;;;12.68;100.00;101325.81;10425443;28;20079;-65
2023/07/20 02:45:20;;;;;;;6.72;5.60;;;;;;;12.58;100.00;101328.44;10427223;28;20033;-66
2023/07/20 02:50:20;;;;;;;6.95;4.72;;;;;;;12.49;100.00;101324.47;10459565;28;20033;-66
2023/07/20 02:55:21;;;;;;;8.38;5.50;;;;;;;12.30;100.00;101316.50;10442642;28;20123;-66
2023/07/20 03:00:23;;;;;;;6.60;4.88;;;;;;;12.29;100.00;101331.38;10413942;28;20401;-65
2023/07/20 03:05:27;;;;;;;8.32;4.85;;;;;;;12.19;100.00;101336.75;10399915;28;20037;-66
2023/07/20 03:10:28;;;;;;;7.95;4.60;;;;;;;12.11;100.00;101337.19;10388551;28;20048;-66
2023/07/20 03:15:29;;;;;;;8.70;5.65;;;;;;;12.03;100.00;101337.59;10441441;28;20041;-66
2023/07/20 03:20:30;;;;;;;9.35;6.15;;;;;;;12.00;100.00;101343.66;10424673;28;20039;-65
2023/07/20 03:25:31;;;;;;;8.48;5.78;;;;;;;11.93;100.00;101340.22;10423671;28;20060;-66
2023/07/20 03:30:31;;;;;;;7.55;5.32;;;;;;;11.85;100.00;101344.22;10439031;28;20061;-66
2023/07/20 03:35:32;;;;;;;9.05;5.90;;;;;;;11.80;100.00;101341.38;10440183;28;20029;-66
2023/07/20 03:40:32;;;;;;;8.38;5.75;;;;;;;11.76;100.00;101343.81;10406037;28;20067;-65
2023/07/20 03:45:33;;;;;;;10.50;5.80;;;;;;;11.71;100.00;101316.13;10423535;28;20528;-65
2023/07/20 03:50:33;;;;;;;10.27;6.45;;;;;;;11.70;100.00;101334.59;10399775;28;20042;-65
2023/07/20 03:55:34;;;;;;;7.47;4.93;;;;;;;11.68;100.00;101338.72;10399154;28;20550;-65
2023/07/20 04:00:34;;;;;;;6.07;5.00;;;;;;;11.62;100.00;101342.47;10415718;28;20041;-65
2023/07/20 04:05:35;;;;;;;8.35;5.80;;;;;;;11.66;100.00;101351.91;10413952;28;20037;-65
2023/07/20 04:10:38;;;;;;;7.65;5.47;;;;;;;11.51;100.00;101330.41;10421027;28;20044;-66
2023/07/20 04:15:39;;;;;;;7.95;4.80;;;;;;;11.65;100.00;101361.25;10398909;28;20041;-66
2023/07/20 04:20:39;;;;;;;8.52;5.70;;;;;;;11.69;100.00;101354.16;10396753;28;20033;-65
2023/07/20 04:25:40;;;;;;;8.07;5.72;;;;;;;11.63;100.00;101341.38;10397630;28;20041;-66
2023/07/20 04:30:40;;;;;;;8.15;5.25;;;;;;;11.85;100.00;101350.56;10412248;28;20573;-66
2023/07/20 04:35:51;;;;;;;8.32;5.22;;;;;;;11.94;100.00;101362.03;10412732;28;20116;-66
2023/07/20 04:40:51;;;;;;;8.50;6.13;;;;;;;12.04;100.00;101361.38;10397349;28;20037;-66
2023/07/20 04:45:52;;;;;;;8.43;5.18;;;;;;;12.17;100.00;101372.06;10437783;28;20052;-66
2023/07/20 04:50:52;;;;;;;8.82;4.60;;;;;;;12.26;100.00;101381.59;10436094;28;20045;-66
2023/07/20 04:55:54;;;;;;;7.18;4.55;;;;;;;12.35;100.00;101392.22;10418262;28;20037;-66
2023/07/20 05:00:54;;;;;;;8.77;4.63;;;;;;;12.44;100.00;101387.91;10419831;28;20090;-66
2023/07/20 05:05:55;;;;;;;5.00;3.88;;;;;;;12.62;100.00;101390.38;10437123;28;20477;-66
2023/07/20 05:10:55;;;;;;;5.13;3.35;;;;;;;12.58;100.00;101391.97;10437412;28;20041;-66
2023/07/20 05:15:56;;;;;;;5.47;3.42;;;;;;;12.55;100.00;101392.50;10401107;28;20034;-66
2023/07/20 05:20:56;;;;;;;5.75;3.17;;;;;;;12.53;100.00;101391.91;10379118;28;20494;-66
2023/07/20 05:25:57;;;;;;;5.40;3.15;;;;;;;12.55;100.00;101389.75;10394468;28;20041;-66
2023/07/20 05:30:59;;;;;;;7.47;3.30;;;;;;;12.63;100.00;101392.06;10430492;28;20523;-66
2023/07/20 05:36:00;;;;;;;6.25;3.00;;;;;;;12.76;100.00;101385.31;10436068;28;20033;-66
2023/07/20 05:41:03;;;;;;;8.43;3.00;;;;;;;12.87;100.00;101381.56;10419798;28;20029;-65
2023/07/20 05:46:05;;;;;;;4.30;2.63;;;;;;;13.13;100.00;101391.03;10419668;28;20037;-66
2023/07/20 05:51:05;;;;;;;3.88;2.30;;;;;;;13.32;100.00;101387.94;10401385;28;20055;-66
2023/07/20 05:56:09;;;;;;;4.72;2.10;;;;;;;13.53;100.00;101387.03;10433321;28;20080;-66
2023/07/20 06:01:10;;;;;;;3.78;1.70;;;;;;;13.81;100.00;101393.41;10401720;28;20037;-66
2023/07/20 06:06:12;;;;;;;2.42;1.50;;;;;;;14.09;100.00;101402.47;10434026;28;20033;-65
2023/07/20 06:11:12;;;;;;;2.33;1.35;;;;;;;14.41;100.00;101377.50;10434027;28;20041;-65
2023/07/20 06:16:13;;;;;;;2.13;1.33;;;;;;;14.85;100.00;101398.53;10410867;28;20053;-65
2023/07/20 06:21:14;;;;;;;3.30;1.10;;;;;;;15.09;100.00;101387.84;10407875;28;20513;-66
2023/07/20 06:26:14;;;;;;;4.70;1.30;;;;;;;15.42;100.00;101403.19;10394184;28;20044;-66
2023/07/20 06:31:14;;;;;;;3.22;0.90;;;;;;;15.69;100.00;101402.13;10394102;28;20952;-65
2023/07/20 06:36:18;;;;;;;4.07;0.63;;;;;;;15.90;100.00;101387.16;10395265;28;20481;-66
2023/07/20 06:41:19;;;;;;;4.90;0.73;;;;;;;16.19;100.00;101389.38;10415070;28;20046;-66
2023/07/20 06:46:19;;;;;;;3.50;0.75;;;;;;;16.43;100.00;101388.75;10434247;28;20064;-66
2023/07/20 06:51:20;;;;;;;1.27;0.70;;;;;;;16.57;100.00;101384.28;10433097;28;20048;-66
2023/07/20 06:56:20;;;;;;;0.80;0.60;;;;;;;16.64;100.00;101379.28;10416998;28;20041;-67
2023/07/20 07:01:21;;;;;;;2.17;0.70;;;;;;;16.87;100.00;101388.94;10379454;28;20038;-66
2023/07/20 07:06:22;;;;;;;1.35;0.82;;;;;;;16.98;100.00;101384.16;10416199;28;20034;-68
2023/07/20 07:11:23;;;;;;;4.88;0.80;;;;;;;17.21;100.00;101391.00;10376225;28;20076;-66
2023/07/20 07:16:23;;;;;;;3.03;0.73;;;;;;;17.18;100.00;101387.94;10398603;28;20100;-66
2023/07/20 07:21:25;;;;;;;2.05;0.60;;;;;;;17.38;100.00;101387.00;10417491;28;20080;-66
2023/07/20 07:26:26;;;;;;;3.38;0.70;;;;;;;17.43;100.00;101390.59;10440721;28;20059;-66
2023/07/20 07:31:26;;;;;;;3.47;1.23;;;;;;;17.47;100.00;101397.25;10425261;28;20097;-64
2023/07/20 07:36:27;;;;;;;2.08;1.08;;;;;;;17.12;100.00;101388.00;10442710;28;20033;-66
2023/07/20 07:41:27;;;;;;;1.73;0.73;;;;;;;17.13;100.00;101392.44;10423292;28;20079;-66
2023/07/20 07:46:28;;;;;;;4.38;1.00;;;;;;;17.85;100.00;101393.97;10400038;28;20037;-66
2023/07/20 07:51:28;;;;;;;2.60;0.82;;;;;;;18.24;100.00;101410.63;10456503;28;20499;-65
2023/07/20 07:56:29;;;;;;;4.75;1.70;;;;;;;17.58;100.00;101409.16;10457133;28;20048;-66
2023/07/20 08:01:29;;;;;;;3.35;1.35;;;;;;;17.11;100.00;101416.91;10409901;28;20492;-67
2023/07/20 08:06:31;;;;;;;3.25;1.40;;;;;;;17.61;100.00;101414.16;10430020;28;20041;-67
2023/07/20 08:11:33;;;;;;;9.07;2.10;;;;;;;17.80;100.00;101424.59;10430537;28;20059;-66
2023/07/20 08:16:34;;;;;;;4.50;1.70;;;;;;;17.04;100.00;101437.84;10430229;28;20062;-65
2023/07/20 08:21:34;;;;;;;6.80;1.67;;;;;;;16.84;100.00;101455.41;10441572;28;20044;-67
2023/07/20 08:26:34;;;;;;;7.50;1.80;;;;;;;16.63;100.00;101449.88;10446922;28;20033;-66
2023/07/20 08:31:35;;;;;;;5.68;1.42;;;;;;;17.28;100.00;101438.84;10452368;28;20052;-66
2023/07/20 08:36:37;;;;;;;3.00;1.33;;;;;;;18.04;100.00;101417.19;10462315;28;20036;-66
2023/07/20 08:41:37;;;;;;;2.33;1.10;;;;;;;18.54;100.00;101425.34;10430040;28;20056;-66
2023/07/20 08:46:38;;;;;;;4.68;1.00;;;;;;;18.53;100.00;101407.81;10462215;28;20052;-66
2023/07/20 08:51:38;;;;;;;2.88;0.60;;;;;;;18.16;100.00;101419.59;10454068;28;20043;-67
2023/07/20 08:56:39;;;;;;;0.82;0.55;;;;;;;18.09;100.00;101419.13;10437591;28;20432;-67
2023/07/20 09:01:40;;;;;;;1.77;0.52;;;;;;;19.17;100.00;101404.03;10434694;28;20052;-67
2023/07/20 09:06:40;;;;;;;3.53;0.90;;;;;;;19.54;100.00;101419.97;10438999;28;20503;-65
2023/07/20 09:11:41;;;;;;;2.83;0.88;;;;;;;18.65;100.00;101421.34;10453671;28;20055;-66
2023/07/20 09:16:51;;;;;;;2.88;0.60;;;;;;;18.40;100.00;101418.81;10426678;28;20041;-66
2023/07/20 09:21:52;;;;;;;4.68;1.00;;;;;;;19.28;100.00;101441.84;10420308;28;20041;-66
2023/07/20 09:26:52;;;;;;;2.05;0.70;;;;;;;18.49;100.00;101423.47;10439423;28;20044;-66
2023/07/20 09:32:00;;;;;;;1.85;0.55;;;;;;;18.18;100.00;101422.09;10423533;28;20167;-65
2023/07/20 09:37:01;;;;;;;2.72;0.55;;;;;;;18.64;100.00;101397.38;10474084;28;20517;-66
2023/07/20 09:42:02;;;;;;;1.05;0.47;;;;;;;19.36;100.00;101396.50;10418680;28;20058;-66
2023/07/20 09:47:03;;;;;;;3.47;1.48;;;;;;;19.50;100.00;101408.56;10415010;28;20048;-66
2023/07/20 09:52:03;;;;;;;4.93;0.55;;;;;;;19.96;100.00;101391.09;10424128;28;20096;-66
2023/07/20 09:57:08;;;;;;;1.30;0.50;;;;;;;20.37;100.00;101389.56;10413908;28;20051;-66
2023/07/20 10:02:23;;;;;;;1.73;0.30;;;;;;;21.19;100.00;101378.69;10423946;28;21349;-65
2023/07/20 10:07:24;;;;;;;0.43;0.30;;;;;;;21.14;96.65;101388.84;10425352;28;20724;-65
2023/07/20 10:12:25;;;;;;;5.88;0.80;;;;;;;21.44;92.55;101369.75;10413447;28;20071;-66
2023/07/20 10:17:26;;;;;;;4.15;0.68;;;;;;;21.56;91.64;101372.81;10420872;28;20413;-67
2023/07/20 10:22:27;;;;;;;2.50;0.38;;;;;;;20.34;91.98;101385.44;10467447;28;20037;-66
2023/07/20 10:27:27;;;;;;;4.68;0.43;;;;;;;20.15;95.30;101385.50;10408529;28;20048;-67
2023/07/20 10:32:28;;;;;;;1.45;0.43;;;;;;;21.06;94.69;101386.78;10394871;28;20039;-67
2023/07/20 10:38:01;;;;;;;2.25;0.55;;;;;;;20.58;92.04;101378.84;10449918;28;20030;-69
2023/07/20 10:43:09;;;;;;;3.40;0.40;;;;;;;20.95;91.05;101368.56;10390462;28;20045;-68
2023/07/20 10:48:15;;;;;;;3.50;0.50;;;;;;;21.21;90.67;101366.06;10410460;28;20048;-67
2023/07/20 10:53:17;;;;;;;0.90;0.63;;;;;;;20.00;92.14;101382.13;10396145;28;20037;-69
2023/07/20 10:58:19;;;;;;;0.47;0.30;;;;;;;19.74;93.87;101385.31;10420286;28;20128;-67
2023/07/20 11:03:30;;;;;;;0.57;0.30;;;;;;;19.84;93.85;101385.16;10405934;28;20099;-67
2023/07/20 11:08:43;;;;;;;1.30;0.40;;;;;;;20.48;93.67;101387.41;10420103;28;20045;-67
2023/07/20 11:13:54;;;;;;;2.10;0.50;;;;;;;21.59;90.44;101370.53;10373031;28;20505;-67
2023/07/20 11:18:55;;;;;;;0.60;0.40;;;;;;;20.85;89.30;101371.59;10377866;28;20045;-67
2023/07/20 11:23:55;;;;;;;1.80;0.40;;;;;;;21.09;89.45;101377.78;10370802;28;20037;-67
2023/07/20 11:28:56;;;;;;;0.75;0.50;;;;;;;21.45;85.76;101360.19;10401939;28;20140;-67
2023/07/20 11:33:57;;;;;;;2.97;0.80;;;;;;;21.65;82.84;101369.28;10391039;28;20099;-68
2023/07/20 11:38:58;;;;;;;0.82;0.40;;;;;;;21.63;83.46;101371.56;10379209;28;20059;-67
2023/07/20 11:43:59;;;;;;;8.88;0.50;;;;;;;21.51;84.30;101347.72;10401597;28;20149;-68
2023/07/20 11:48:59;;;;;;;2.35;0.60;;;;;;;22.09;84.62;101356.38;10406880;28;20041;-68
2023/07/20 11:54:01;;;;;;;1.73;0.43;;;;;;;21.58;84.25;101349.25;10395115;28;20049;-67
2023/07/20 11:59:02;;;;;;;1.35;0.40;;;;;;;21.67;84.42;101344.56;10416313;28;20042;-67
2023/07/20 12:04:03;;;;;;;2.45;0.55;;;;;;;22.27;82.49;101349.75;10384926;28;20044;-67
2023/07/20 12:09:03;;;;;;;1.50;0.68;;;;;;;21.53;80.56;101339.81;10370825;28;20094;-67
2023/07/20 12:14:07;;;;;;;0.55;0.30;;;;;;;22.28;81.24;101333.72;10398621;28;20057;-68
2023/07/20 12:19:12;;;;;;;0.30;0.20;;;;;;;22.48;78.09;101295.88;10383393;28;20037;-67
2023/07/20 12:24:13;;;;;;;1.33;0.98;;;;;;;22.42;79.59;101334.47;10368118;28;20506;-68
2023/07/20 12:29:13;;;;;;;0.98;0.52;;;;;;;22.84;77.59;101325.69;10374208;28;20038;-68
2023/07/20 12:34:14;;;;;;;1.42;0.40;;;;;;;22.63;78.65;101334.69;10389231;28;20040;-67
2023/07/20 12:39:14;;;;;;;2.17;0.40;;;;;;;21.70;80.25;101341.09;10396640;28;20533;-67
2023/07/20 12:44:15;;;;;;;3.67;0.50;;;;;;;21.74;81.78;101334.53;10413514;28;20037;-67
2023/07/20 12:49:16;;;;;;;1.92;0.40;;;;;;;23.60;75.78;101314.03;10434545;28;20409;-67
2023/07/20 12:54:16;;;;;;;2.72;0.52;;;;;;;24.70;74.99;101305.09;10369137;28;20044;-67
2023/07/20 12:59:17;;;;;;;0.75;0.20;;;;;;;23.63;73.70;101318.19;10380741;28;20052;-68
2023/07/20 13:04:17;;;;;;;1.23;0.30;;;;;;;22.45;74.56;101313.34;10383891;28;20068;-68
2023/07/20 13:09:18;;;;;;;1.65;0.93;;;;;;;21.60;80.14;101317.00;10403545;28;20045;-67
2023/07/20 13:14:18;;;;;;;2.05;0.47;;;;;;;20.72;79.00;101332.13;10408658;28;20048;-67
2023/07/20 13:19:19;;;;;;;1.88;0.40;;;;;;;20.37;81.51;101347.63;10413456;28;20048;-68
2023/07/20 13:24:20;;;;;;;1.98;0.52;;;;;;;19.97;98.82;101403.13;10399516;28;20038;-67
2023/07/20 13:29:20;;;;;;;4.50;1.05;;;;;;;19.50;100.00;101408.56;10379912;28;20233;-68
2023/07/20 13:34:21;;;;;;;0.93;0.55;;;;;;;20.54;100.00;101400.16;10378415;28;20529;-68
2023/07/20 13:39:24;;;;;;;1.73;0.60;;;;;;;22.02;100.00;101387.69;10396331;28;20045;-68
2023/07/20 13:44:24;;;;;;;0.95;0.50;;;;;;;22.70;100.00;101377.16;10359467;28;20044;-69
2023/07/20 13:49:26;;;;;;;1.90;0.65;;;;;;;24.22;99.96;101340.88;10384777;28;20041;-68
2023/07/20 13:54:27;;;;;;;1.83;0.60;;;;;;;25.61;87.67;101325.16;10395951;28;20497;-68
2023/07/20 13:59:27;;;;;;;0.77;0.35;;;;;;;24.29;80.39;101315.03;10368693;28;20060;-68
2023/07/20 14:04:28;;;;;;;1.95;0.50;;;;;;;23.31;86.05;101338.00;10392107;28;20048;-68
2023/07/20 14:09:29;;;;;;;2.38;0.40;;;;;;;21.92;90.68;101363.53;10397542;28;20045;-68
2023/07/20 14:14:29;;;;;;;2.00;0.70;;;;;;;21.99;93.05;101363.06;10419410;28;20124;-69
2023/07/20 14:19:30;;;;;;;2.00;0.50;;;;;;;22.84;85.65;101348.13;10428481;28;20038;-68
2023/07/20 14:24:30;;;;;;;2.45;0.40;;;;;;;22.26;86.62;101331.28;10418034;28;20045;-67
2023/07/20 14:29:32;;;;;;;2.58;0.43;;;;;;;22.44;88.67;101345.38;10395504;28;20045;-68
2023/07/20 14:34:33;;;;;;;1.35;0.47;;;;;;;22.84;85.63;101326.53;10373625;28;20076;-68
2023/07/20 14:39:33;;;;;;;0.60;0.30;;;;;;;23.32;81.85;101319.19;10397523;28;20033;-69
2023/07/20 14:44:34;;;;;;;3.30;0.50;;;;;;;24.29;80.68;101312.22;10379072;28;20053;-69
2023/07/20 14:49:34;;;;;;;1.85;0.57;;;;;;;25.41;78.39;101309.94;10414886;28;20032;-68
2023/07/20 14:54:35;;;;;;;1.75;0.52;;;;;;;25.25;74.49;101287.19;10394566;28;20044;-69
2023/07/20 14:59:35;;;;;;;1.48;0.43;;;;;;;24.42;75.95;101316.00;10397158;28;20033;-69
2023/07/20 15:04:36;;;;;;;3.95;0.52;;;;;;;23.32;80.33;101305.13;10410642;28;20033;-69
2023/07/20 15:09:36;;;;;;;1.48;0.45;;;;;;;22.68;80.24;101312.13;10412521;28;20045;-68
2023/07/20 15:14:41;;;;;;;1.30;0.43;;;;;;;22.03;82.72;101312.78;10416169;28;20044;-68
2023/07/20 15:19:41;;;;;;;3.50;1.27;;;;;;;21.82;86.47;101321.75;10429058;28;20069;-68
2023/07/20 15:24:42;;;;;;;1.70;0.43;;;;;;;22.47;85.05;101311.88;10429330;28;20048;-67
2023/07/20 15:29:44;;;;;;;1.52;0.63;;;;;;;22.85;78.47;101282.44;10430028;28;20618;-67
2023/07/20 15:34:46;;;;;;;1.88;0.60;;;;;;;22.86;80.13;101301.75;10429291;28;20144;-68
2023/07/20 15:39:50;;;;;;;1.60;0.82;;;;;;;23.46;76.93;101288.09;10433464;28;20042;-68
2023/07/20 15:44:50;;;;;;;1.20;0.47;;;;;;;23.26;78.23;101292.41;10428490;28;20083;-67
2023/07/20 15:49:51;;;;;;;3.33;0.80;;;;;;;23.21;78.64;101289.75;10450832;28;20048;-68
2023/07/20 15:54:52;;;;;;;1.00;0.55;;;;;;;23.79;75.71;101284.75;10456361;28;20033;-67
2023/07/20 15:59:53;;;;;;;0.80;0.65;;;;;;;23.56;75.08;101273.69;10422199;28;20045;-68
2023/07/20 16:04:53;;;;;;;0.85;0.40;;;;;;;22.62;74.87;101279.75;10415061;28;20044;-67
2023/07/20 16:09:58;;;;;;;2.17;0.63;;;;;;;22.63;83.42;101281.38;10420505;28;20493;-68
2023/07/20 16:14:58;;;;;;;2.75;0.40;;;;;;;23.16;82.98;101293.56;10440917;28;20033;-68
2023/07/20 16:19:59;;;;;;;5.20;0.73;;;;;;;22.52;85.25;101296.88;10408885;28;20535;-68
2023/07/20 16:24:59;;;;;;;1.98;0.70;;;;;;;21.60;88.19;101293.72;10456410;28;20227;-68
2023/07/20 16:30:01;;;;;;;2.67;0.60;;;;;;;21.47;92.25;101301.88;10458585;28;20044;-68
2023/07/20 16:35:02;;;;;;;2.10;0.57;;;;;;;21.68;93.07;101295.75;10442955;28;20040;-68
2023/07/20 16:40:08;;;;;;;1.02;0.60;;;;;;;21.44;92.83;101282.91;10442104;28;20037;-69
2023/07/20 16:45:09;;;;;;;2.10;0.45;;;;;;;20.81;94.88;101273.44;10432082;28;20481;-68
2023/07/20 16:50:10;;;;;;;4.38;0.60;;;;;;;20.48;97.52;101287.53;10424831;28;20040;-68
2023/07/20 16:55:12;;;;;;;3.45;0.60;;;;;;;20.54;97.54;101285.47;10441176;28;20051;-68
2023/07/20 17:00:16;;;;;;;3.08;0.60;;;;;;;20.49;98.17;101288.38;10422107;28;20095;-68
2023/07/20 17:05:17;;;;;;;1.60;0.50;;;;;;;20.27;98.92;101281.53;10423313;28;20105;-68
2023/07/20 17:10:18;;;;;;;2.75;0.98;;;;;;;20.00;100.00;101281.53;10418799;28;20041;-67
2023/07/20 17:15:18;;;;;;;2.92;0.95;;;;;;;19.73;100.00;101283.94;10427268;28;20038;-68
2023/07/20 17:20:20;;;;;;;1.85;0.70;;;;;;;19.62;100.00;101281.63;10473848;28;20127;-68
2023/07/20 17:25:20;;;;;;;1.38;0.70;;;;;;;19.54;100.00;101289.53;10453526;28;20048;-67
2023/07/20 17:30:21;;;;;;;1.33;0.55;;;;;;;19.36;100.00;101284.81;10423108;28;20352;-67
2023/07/20 17:35:22;;;;;;;1.02;0.45;;;;;;;19.08;100.00;101283.84;10455330;28;20037;-68
2023/07/20 17:40:23;;;;;;;1.50;0.50;;;;;;;18.98;100.00;101289.59;10423057;28;20096;-67
2023/07/20 17:45:24;;;;;;;3.17;0.60;;;;;;;18.81;100.00;101281.72;10459632;28;20089;-68
2023/07/20 17:50:26;;;;;;;4.15;1.17;;;;;;;18.74;100.00;101284.84;10420369;28;20426;-68
2023/07/20 17:55:27;;;;;;;2.20;1.17;;;;;;;18.61;100.00;101278.06;10414029;28;20037;-68
2023/07/20 18:00:27;;;;;;;2.78;1.10;;;;;;;18.45;100.00;101283.00;10450278;28;20057;-68
2023/07/20 18:05:28;;;;;;;4.85;0.82;;;;;;;18.43;100.00;101278.84;10423995;28;20967;-67
2023/07/20 18:10:28;;;;;;;2.10;0.75;;;;;;;18.40;100.00;101285.00;10438982;28;20047;-68
2023/07/20 18:15:29;;;;;;;2.05;0.70;;;;;;;18.40;100.00;101285.00;10472291;28;20123;-68
2023/07/20 18:20:32;;;;;;;1.25;0.60;;;;;;;18.32;100.00;101270.59;10439785;28;20032;-68
2023/07/20 18:25:33;;;;;;;1.73;0.70;;;;;;;18.32;100.00;101278.97;10436897;28;20045;-68
2023/07/20 18:30:34;;;;;;;5.18;0.88;;;;;;;18.24;100.00;101278.81;10455743;28;20440;-68
2023/07/20 18:35:34;;;;;;;1.52;1.00;;;;;;;18.14;100.00;101283.34;10421318;28;20040;-69
2023/07/20 18:40:35;;;;;;;1.73;1.30;;;;;;;17.88;100.00;101263.31;10419352;28;20037;-68
2023/07/20 18:45:38;;;;;;;2.13;0.80;;;;;;;17.64;100.00;101260.44;10442079;28;20044;-68
2023/07/20 18:50:39;;;;;;;1.58;1.10;;;;;;;17.63;100.00;101288.56;10407949;28;20040;-68
2023/07/20 18:55:39;;;;;;;3.00;0.88;;;;;;;17.50;100.00;101290.06;10454318;28;20045;-68
2023/07/20 19:00:40;;;;;;;4.95;1.00;;;;;;;17.39;100.00;101292.09;10418019;28;20043;-68
2023/07/20 19:05:44;;;;;;;1.42;0.90;;;;;;;17.31;100.00;101281.59;10438631;28;20033;-68
2023/07/20 19:10:45;;;;;;;1.98;0.70;;;;;;;17.13;100.00;101272.78;10421698;28;20057;-68
2023/07/20 19:15:49;;;;;;;4.38;0.60;;;;;;;17.08;100.00;101270.06;10447101;28;20041;-68
2023/07/20 19:20:50;;;;;;;1.15;0.80;;;;;;;17.04;100.00;101277.31;10429879;28;20037;-68
2023/07/20 19:25:50;;;;;;;3.72;0.90;;;;;;;17.01;100.00;101294.59;10445997;28;20079;-68
2023/07/20 19:30:51;;;;;;;2.95;1.42;;;;;;;17.02;100.00;101307.38;10426068;28;20044;-68
2023/07/20 19:35:51;;;;;;;2.85;0.82;;;;;;;16.77;100.00;101305.53;10461785;28;20060;-68
2023/07/20 19:40:53;;;;;;;0.98;0.60;;;;;;;16.38;100.00;101299.88;10477512;28;20096;-68
2023/07/20 19:45:54;;;;;;;3.70;1.08;;;;;;;16.08;100.00;101321.03;10443842;28;20120;-68
2023/07/20 19:50:54;;;;;;;4.50;1.00;;;;;;;15.70;100.00;101309.41;10464192;28;20455;-68
2023/07/20 19:55:59;;;;;;;2.13;0.70;;;;;;;15.46;100.00;101320.22;10442189;28;20288;-68
2023/07/20 20:01:00;;;;;;;1.30;0.80;;;;;;;15.20;100.00;101322.13;10402992;28;20122;-68
2023/07/20 20:06:00;;;;;;;2.88;0.63;;;;;;;15.03;100.00;101323.19;10422942;28;20071;-68
2023/07/20 20:11:01;;;;;;;1.80;0.90;;;;;;;14.87;100.00;101324.25;10461502;28;20497;-68
2023/07/20 20:16:04;;;;;;;4.32;1.27;;;;;;;14.72;100.00;101331.41;10387443;28;20048;-68
2023/07/20 20:21:05;;;;;;;1.92;0.98;;;;;;;14.61;100.00;101334.41;10387351;28;20710;-67
2023/07/20 20:26:06;;;;;;;2.38;1.10;;;;;;;14.55;100.00;101336.28;10379511;28;20052;-67
2023/07/20 20:31:06;;;;;;;2.60;0.95;;;;;;;14.46;100.00;101327.66;10370922;28;20063;-68
2023/07/20 20:36:07;;;;;;;3.33;1.02;;;;;;;14.30;100.00;101321.22;10368873;28;20109;-67
2023/07/20 20:41:07;;;;;;;3.15;1.15;;;;;;;14.25;100.00;101323.94;10415619;28;20048;-68
2023/07/20 20:46:13;;;;;;;3.58;1.02;;;;;;;14.11;100.00;101317.22;10436497;28;20048;-67
2023/07/20 20:51:13;;;;;;;3.40;1.10;;;;;;;13.86;100.00;101307.63;10475392;28;20041;-67
2023/07/20 20:56:14;;;;;;;2.30;1.27;;;;;;;13.82;100.00;101317.56;10434321;28;20094;-67
2023/07/20 21:01:14;;;;;;;3.38;1.35;;;;;;;13.63;100.00;101297.78;10438982;28;20124;-68
2023/07/20 21:06:16;;;;;;;5.78;1.65;;;;;;;13.51;100.00;101309.00;10424150;28;20152;-67
2023/07/20 21:11:16;;;;;;;4.38;1.67;;;;;;;13.36;100.00;101295.06;10385354;28;20132;-67
2023/07/20 21:16:17;;;;;;;2.20;1.48;;;;;;;13.26;100.00;101292.16;10374471;28;20445;-68
2023/07/20 21:21:17;;;;;;;2.78;1.77;;;;;;;13.26;100.00;101297.69;10363598;28;20052;-67
2023/07/20 21:26:18;;;;;;;6.05;2.63;;;;;;;13.20;100.00;101295.97;10374677;28;20049;-67
2023/07/20 21:31:19;;;;;;;4.80;1.70;;;;;;;13.20;100.00;101304.28;10389691;28;20056;-68
2023/07/20 21:36:20;;;;;;;2.53;1.67;;;;;;;13.15;100.00;101295.91;10377915;28;20036;-67
2023/07/20 21:41:20;;;;;;;2.75;1.67;;;;;;;13.05;100.00;101282.84;10353745;28;20061;-68
2023/07/20 21:46:21;;;;;;;3.55;1.92;;;;;;;13.10;100.00;101299.47;10352707;28;20508;-68
2023/07/20 21:51:21;;;;;;;6.72;2.45;;;;;;;13.10;100.00;101296.72;10347686;28;20648;-67
2023/07/20 21:56:22;;;;;;;3.55;2.05;;;;;;;13.17;100.00;101300.13;10329834;28;20064;-67
2023/07/20 22:01:22;;;;;;;2.25;1.80;;;;;;;13.19;100.00;101295.16;10393969;28;20041;-67
2023/07/20 22:06:23;;;;;;;3.42;2.30;;;;;;;13.22;100.00;101293.78;10394579;28;20075;-66
2023/07/20 22:11:24;;;;;;;3.97;2.55;;;;;;;13.24;100.00;101292.44;10378326;28;20536;-68
2023/07/20 22:16:24;;;;;;;2.65;1.90;;;;;;;13.26;100.00;101287.47;10405729;28;20041;-67
2023/07/20 22:21:25;;;;;;;2.65;1.83;;;;;;;13.26;100.00;101289.41;10398258;28;20041;-67
2023/07/20 22:26:25;;;;;;;3.47;1.77;;;;;;;13.23;100.00;101284.38;10414576;28;20441;-67
2023/07/20 22:31:26;;;;;;;3.85;1.88;;;;;;;13.19;100.00;101288.78;10396315;28;20051;-67
2023/07/20 22:36:27;;;;;;;5.47;2.13;;;;;;;13.03;100.00;101266.53;10432726;28;20041;-68
2023/07/20 22:41:27;;;;;;;4.57;1.92;;;;;;;13.16;100.00;101283.78;10414139;28;20038;-68
2023/07/20 22:46:28;;;;;;;4.20;1.67;;;;;;;13.16;100.00;101290.13;10372530;28;20054;-67
2023/07/20 22:51:28;;;;;;;2.20;1.67;;;;;;;13.21;100.00;101278.28;10399596;28;20532;-67
2023/07/20 22:56:31;;;;;;;3.50;2.05;;;;;;;13.19;100.00;101277.72;10379190;28;20068;-67